TimeAKDT,TemperatureF,Dew PointF,Humidity,Sea Level PressureIn,VisibilityMPH,Wind Direction,Wind SpeedMPH,Gust SpeedMPH,PrecipitationIn,Events,Conditions,WindDirDegrees,DateUTC
12:53 AM,34.0,30.9,89,30.27,10.0,Calm,Calm,-,N/A,,Clear,0,2013-04-03 08:53:00
1:53 AM,37.0,32.0,82,30.26,10.0,NNW,4.6,-,N/A,,Clear,340,2013-04-03 09:53:00
2:53 AM,36.0,30.9,82,30.24,10.0,North,3.5,-,N/A,,Mostly Cloudy,360,2013-04-03 10:53:00
3:53 AM,35.1,32.0,89,30.24,10.0,Calm,Calm,-,N/A,,Clear,0,2013-04-03 11:53:00
4:53 AM,36.0,33.1,89,30.23,10.0,NNW,4.6,-,N/A,,Clear,340,2013-04-03 12:53:00
5:53 AM,36.0,33.1,89,30.23,10.0,NNW,5.8,-,N/A,,Clear,340,2013-04-03 13:53:00
6:53 AM,36.0,32.0,86,30.22,10.0,NNW,3.5,-,N/A,,Mostly Cloudy,340,2013-04-03 14:53:00
7:53 AM,39.0,32.0,76,30.22,10.0,NNW,3.5,-,N/A,,Mostly Cloudy,330,2013-04-03 15:53:00
8:53 AM,41.0,32.0,70,30.21,10.0,Calm,Calm,-,N/A,,Clear,0,2013-04-03 16:53:00
9:53 AM,44.1,30.9,60,30.20,10.0,Calm,Calm,-,N/A,,Mostly Cloudy,0,2013-04-03 17:53:00
10:53 AM,46.9,32.0,56,30.19,10.0,WNW,5.8,-,N/A,,Mostly Cloudy,300,2013-04-03 18:53:00
11:53 AM,48.9,30.0,48,30.18,10.0,WNW,4.6,-,N/A,,Mostly Cloudy,300,2013-04-03 19:53:00
12:53 PM,48.0,32.0,54,30.17,10.0,NW,5.8,-,N/A,,Overcast,310,2013-04-03 20:53:00
1:53 PM,50.0,30.9,48,30.17,10.0,WNW,3.5,-,N/A,,Overcast,300,2013-04-03 21:53:00
2:53 PM,51.1,30.0,44,30.15,10.0,Variable,4.6,-,N/A,,Mostly Cloudy,0,2013-04-03 22:53:00
3:53 PM,48.9,25.0,39,30.14,10.0,Variable,4.6,-,N/A,,Overcast,0,2013-04-03 23:53:00
4:53 PM,48.0,25.0,41,30.12,10.0,NNW,5.8,-,N/A,,Overcast,330,2013-04-04 00:53:00
5:53 PM,48.0,28.0,46,30.10,10.0,Calm,Calm,-,N/A,,Overcast,0,2013-04-04 01:53:00
6:53 PM,46.0,32.0,58,30.07,10.0,NW,3.5,-,N/A,,Overcast,320,2013-04-04 02:53:00
7:53 PM,45.0,33.1,63,30.05,10.0,NNW,3.5,-,N/A,,Overcast,330,2013-04-04 03:53:00
8:53 PM,44.1,34.0,68,30.04,10.0,NW,3.5,-,N/A,,Overcast,320,2013-04-04 04:53:00
9:53 PM,43.0,37.9,82,30.03,10.0,NW,4.6,-,N/A,,Mostly Cloudy,320,2013-04-04 05:53:00
10:53 PM,43.0,37.0,80,30.01,10.0,NW,3.5,-,N/A,,Overcast,320,2013-04-04 06:53:00
11:53 PM,43.0,35.1,74,29.99,10.0,NNW,4.6,-,N/A,,Mostly Cloudy,330,2013-04-04 07:53:00